sensor_id;sensor_type;location;lat;lon;timestamp;P1;durP1;ratioP1;P2;durP2;ratioP2
57663;SDS011;43493;53.098;6.064;2023-08-31T00:02:12;3.30;;;1.17;;
57663;SDS011;43493;53.098;6.064;2023-08-31T00:04:38;3.87;;;1.53;;
57663;SDS011;43493;53.098;6.064;2023-08-31T00:07:04;5.17;;;1.60;;
57663;SDS011;43493;53.098;6.064;2023-08-31T00:09:30;6.33;;;1.60;;
57663;SDS011;43493;53.098;6.064;2023-08-31T00:11:56;2.47;;;1.07;;
57663;SDS011;43493;53.098;6.064;2023-08-31T00:14:22;3.90;;;1.30;;
57663;SDS011;43493;53.098;6.064;2023-08-31T00:16:48;4.17;;;1.50;;
57663;SDS011;43493;53.098;6.064;2023-08-31T00:19:15;5.20;;;1.40;;
57663;SDS011;43493;53.098;6.064;2023-08-31T00:21:41;4.17;;;1.23;;
57663;SDS011;43493;53.098;6.064;2023-08-31T00:24:07;3.57;;;1.30;;
57663;SDS011;43493;53.098;6.064;2023-08-31T00:26:35;5.87;;;1.53;;
57663;SDS011;43493;53.098;6.064;2023-08-31T00:29:05;3.27;;;1.43;;
57663;SDS011;43493;53.098;6.064;2023-08-31T00:31:36;4.07;;;1.27;;
57663;SDS011;43493;53.098;6.064;2023-08-31T00:34:02;3.33;;;1.40;;
57663;SDS011;43493;53.098;6.064;2023-08-31T00:36:29;6.57;;;1.37;;
57663;SDS011;43493;53.098;6.064;2023-08-31T00:38:56;4.33;;;1.13;;
57663;SDS011;43493;53.098;6.064;2023-08-31T00:41:22;2.43;;;0.90;;
57663;SDS011;43493;53.098;6.064;2023-08-31T00:43:48;5.60;;;1.37;;
57663;SDS011;43493;53.098;6.064;2023-08-31T00:46:14;3.77;;;1.20;;
57663;SDS011;43493;53.098;6.064;2023-08-31T00:48:40;4.10;;;0.80;;
57663;SDS011;43493;53.098;6.064;2023-08-31T00:51:07;4.63;;;1.00;;
57663;SDS011;43493;53.098;6.064;2023-08-31T00:53:33;3.83;;;1.00;;
57663;SDS011;43493;53.098;6.064;2023-08-31T00:56:00;3.03;;;1.00;;
57663;SDS011;43493;53.098;6.064;2023-08-31T00:58:27;4.13;;;1.50;;
57663;SDS011;43493;53.098;6.064;2023-08-31T01:03:54;2.37;;;0.80;;
57663;SDS011;43493;53.098;6.064;2023-08-31T01:12:25;2.13;;;0.80;;
57663;SDS011;43493;53.098;6.064;2023-08-31T01:15:02;1.77;;;0.70;;
57663;SDS011;43493;53.098;6.064;2023-08-31T01:17:30;4.90;;;1.33;;
57663;SDS011;43493;53.098;6.064;2023-08-31T01:19:58;2.13;;;0.80;;
57663;SDS011;43493;53.098;6.064;2023-08-31T01:25:05;1.93;;;0.80;;
57663;SDS011;43493;53.098;6.064;2023-08-31T01:27:34;3.97;;;0.90;;
57663;SDS011;43493;53.098;6.064;2023-08-31T01:30:04;3.07;;;0.80;;
57663;SDS011;43493;53.098;6.064;2023-08-31T01:32:33;3.57;;;1.10;;
57663;SDS011;43493;53.098;6.064;2023-08-31T01:34:59;3.03;;;1.00;;
57663;SDS011;43493;53.098;6.064;2023-08-31T01:37:34;4.40;;;1.10;;
57663;SDS011;43493;53.098;6.064;2023-08-31T01:40:12;3.57;;;1.20;;
57663;SDS011;43493;53.098;6.064;2023-08-31T01:42:44;2.00;;;0.97;;
57663;SDS011;43493;53.098;6.064;2023-08-31T01:45:17;3.90;;;0.90;;
57663;SDS011;43493;53.098;6.064;2023-08-31T01:47:47;4.33;;;1.10;;
57663;SDS011;43493;53.098;6.064;2023-08-31T01:50:13;2.53;;;0.90;;
57663;SDS011;43493;53.098;6.064;2023-08-31T01:52:39;3.03;;;0.80;;
57663;SDS011;43493;53.098;6.064;2023-08-31T01:55:05;2.03;;;1.00;;
57663;SDS011;43493;53.098;6.064;2023-08-31T01:57:31;3.30;;;0.80;;
57663;SDS011;43493;53.098;6.064;2023-08-31T01:59:58;5.37;;;1.03;;
57663;SDS011;43493;53.098;6.064;2023-08-31T02:02:24;3.93;;;1.10;;
57663;SDS011;43493;53.098;6.064;2023-08-31T02:04:50;3.77;;;1.00;;
57663;SDS011;43493;53.098;6.064;2023-08-31T02:07:17;3.47;;;0.87;;
57663;SDS011;43493;53.098;6.064;2023-08-31T02:09:43;4.47;;;1.10;;
57663;SDS011;43493;53.098;6.064;2023-08-31T02:12:08;4.77;;;1.10;;
57663;SDS011;43493;53.098;6.064;2023-08-31T02:14:34;7.87;;;1.47;;
57663;SDS011;43493;53.098;6.064;2023-08-31T02:17:02;2.20;;;0.80;;
57663;SDS011;43493;53.098;6.064;2023-08-31T02:19:28;4.27;;;1.30;;
57663;SDS011;43493;53.098;6.064;2023-08-31T02:21:53;3.87;;;1.57;;
57663;SDS011;43493;53.098;6.064;2023-08-31T02:24:19;3.43;;;0.87;;
57663;SDS011;43493;53.098;6.064;2023-08-31T02:26:45;3.17;;;1.03;;
57663;SDS011;43493;53.098;6.064;2023-08-31T02:29:11;1.90;;;0.90;;
57663;SDS011;43493;53.098;6.064;2023-08-31T02:31:36;2.30;;;0.90;;
57663;SDS011;43493;53.098;6.064;2023-08-31T02:34:06;2.57;;;1.10;;
57663;SDS011;43493;53.098;6.064;2023-08-31T02:36:32;2.57;;;0.80;;
57663;SDS011;43493;53.098;6.064;2023-08-31T02:38:58;3.23;;;1.03;;
57663;SDS011;43493;53.098;6.064;2023-08-31T02:41:24;2.80;;;1.20;;
57663;SDS011;43493;53.098;6.064;2023-08-31T02:43:50;4.83;;;2.03;;
57663;SDS011;43493;53.098;6.064;2023-08-31T02:46:19;5.80;;;1.47;;
57663;SDS011;43493;53.098;6.064;2023-08-31T02:48:45;8.57;;;1.07;;
57663;SDS011;43493;53.098;6.064;2023-08-31T02:51:11;2.30;;;1.20;;
57663;SDS011;43493;53.098;6.064;2023-08-31T02:53:37;3.03;;;1.30;;
57663;SDS011;43493;53.098;6.064;2023-08-31T02:56:03;4.63;;;0.93;;
57663;SDS011;43493;53.098;6.064;2023-08-31T02:58:29;2.33;;;1.03;;
57663;SDS011;43493;53.098;6.064;2023-08-31T03:00:55;2.73;;;1.00;;
57663;SDS011;43493;53.098;6.064;2023-08-31T03:03:21;3.20;;;1.20;;
57663;SDS011;43493;53.098;6.064;2023-08-31T03:05:47;3.60;;;1.10;;
57663;SDS011;43493;53.098;6.064;2023-08-31T03:08:12;4.93;;;1.40;;
57663;SDS011;43493;53.098;6.064;2023-08-31T03:10:38;3.50;;;1.03;;
57663;SDS011;43493;53.098;6.064;2023-08-31T03:13:04;2.77;;;1.00;;
57663;SDS011;43493;53.098;6.064;2023-08-31T03:15:32;3.20;;;1.40;;
57663;SDS011;43493;53.098;6.064;2023-08-31T03:17:58;5.47;;;1.40;;
57663;SDS011;43493;53.098;6.064;2023-08-31T03:20:25;4.70;;;1.40;;
57663;SDS011;43493;53.098;6.064;2023-08-31T03:22:50;5.53;;;1.40;;
57663;SDS011;43493;53.098;6.064;2023-08-31T03:25:16;6.37;;;1.20;;
57663;SDS011;43493;53.098;6.064;2023-08-31T03:27:42;4.53;;;1.23;;
57663;SDS011;43493;53.098;6.064;2023-08-31T03:30:08;6.37;;;1.20;;
57663;SDS011;43493;53.098;6.064;2023-08-31T03:32:34;4.53;;;1.23;;
57663;SDS011;43493;53.098;6.064;2023-08-31T03:35:01;5.77;;;1.30;;
57663;SDS011;43493;53.098;6.064;2023-08-31T03:37:28;5.13;;;1.40;;
57663;SDS011;43493;53.098;6.064;2023-08-31T03:39:54;4.17;;;1.27;;
57663;SDS011;43493;53.098;6.064;2023-08-31T03:42:20;4.57;;;1.83;;
57663;SDS011;43493;53.098;6.064;2023-08-31T03:44:46;4.03;;;1.40;;
57663;SDS011;43493;53.098;6.064;2023-08-31T03:47:12;4.17;;;1.57;;
57663;SDS011;43493;53.098;6.064;2023-08-31T03:49:37;2.90;;;1.33;;
57663;SDS011;43493;53.098;6.064;2023-08-31T03:52:03;4.47;;;1.40;;
57663;SDS011;43493;53.098;6.064;2023-08-31T03:54:29;7.47;;;1.70;;
57663;SDS011;43493;53.098;6.064;2023-08-31T03:56:55;3.33;;;1.40;;
57663;SDS011;43493;53.098;6.064;2023-08-31T03:59:20;6.30;;;1.50;;
57663;SDS011;43493;53.098;6.064;2023-08-31T04:01:46;4.57;;;2.00;;
57663;SDS011;43493;53.098;6.064;2023-08-31T04:04:12;7.40;;;1.30;;
57663;SDS011;43493;53.098;6.064;2023-08-31T04:06:37;5.17;;;1.30;;
57663;SDS011;43493;53.098;6.064;2023-08-31T04:09:03;3.97;;;1.47;;
57663;SDS011;43493;53.098;6.064;2023-08-31T04:11:29;5.50;;;1.40;;
57663;SDS011;43493;53.098;6.064;2023-08-31T04:13:55;6.80;;;1.53;;
57663;SDS011;43493;53.098;6.064;2023-08-31T04:16:21;3.60;;;1.33;;
57663;SDS011;43493;53.098;6.064;2023-08-31T04:18:46;7.63;;;1.43;;
57663;SDS011;43493;53.098;6.064;2023-08-31T04:21:16;5.97;;;1.40;;
57663;SDS011;43493;53.098;6.064;2023-08-31T04:23:42;4.67;;;1.37;;
57663;SDS011;43493;53.098;6.064;2023-08-31T04:26:14;4.63;;;1.30;;
57663;SDS011;43493;53.098;6.064;2023-08-31T04:28:42;6.75;;;2.03;;
57663;SDS011;43493;53.098;6.064;2023-08-31T04:31:09;5.17;;;1.53;;
57663;SDS011;43493;53.098;6.064;2023-08-31T04:33:35;6.37;;;1.70;;
57663;SDS011;43493;53.098;6.064;2023-08-31T04:36:02;5.20;;;1.43;;
57663;SDS011;43493;53.098;6.064;2023-08-31T04:38:29;6.30;;;1.83;;
57663;SDS011;43493;53.098;6.064;2023-08-31T04:40:59;7.40;;;1.60;;
57663;SDS011;43493;53.098;6.064;2023-08-31T04:43:25;4.27;;;1.50;;
57663;SDS011;43493;53.098;6.064;2023-08-31T04:45:52;7.70;;;1.83;;
57663;SDS011;43493;53.098;6.064;2023-08-31T04:48:18;7.80;;;2.00;;
57663;SDS011;43493;53.098;6.064;2023-08-31T04:50:43;6.60;;;1.63;;
57663;SDS011;43493;53.098;6.064;2023-08-31T04:53:09;5.53;;;1.60;;
57663;SDS011;43493;53.098;6.064;2023-08-31T04:55:35;5.37;;;1.67;;
57663;SDS011;43493;53.098;6.064;2023-08-31T04:58:00;5.83;;;1.80;;
57663;SDS011;43493;53.098;6.064;2023-08-31T05:00:26;6.53;;;2.13;;
57663;SDS011;43493;53.098;6.064;2023-08-31T05:02:52;5.23;;;1.40;;
57663;SDS011;43493;53.098;6.064;2023-08-31T05:05:17;5.67;;;1.43;;
57663;SDS011;43493;53.098;6.064;2023-08-31T05:07:43;9.00;;;1.50;;
57663;SDS011;43493;53.098;6.064;2023-08-31T05:10:09;4.83;;;1.43;;
57663;SDS011;43493;53.098;6.064;2023-08-31T05:12:35;6.03;;;1.80;;
57663;SDS011;43493;53.098;6.064;2023-08-31T05:15:01;4.67;;;1.53;;
57663;SDS011;43493;53.098;6.064;2023-08-31T05:17:27;6.00;;;1.77;;
57663;SDS011;43493;53.098;6.064;2023-08-31T05:19:53;7.83;;;1.70;;
57663;SDS011;43493;53.098;6.064;2023-08-31T05:22:19;7.37;;;2.00;;
57663;SDS011;43493;53.098;6.064;2023-08-31T05:24:44;6.30;;;2.00;;
57663;SDS011;43493;53.098;6.064;2023-08-31T05:27:10;5.97;;;2.20;;
57663;SDS011;43493;53.098;6.064;2023-08-31T05:29:36;7.30;;;2.00;;
57663;SDS011;43493;53.098;6.064;2023-08-31T05:32:01;8.97;;;1.80;;
57663;SDS011;43493;53.098;6.064;2023-08-31T05:34:27;6.93;;;1.97;;
57663;SDS011;43493;53.098;6.064;2023-08-31T05:36:53;7.43;;;1.93;;
57663;SDS011;43493;53.098;6.064;2023-08-31T05:39:19;5.17;;;2.17;;
57663;SDS011;43493;53.098;6.064;2023-08-31T05:41:45;7.90;;;1.90;;
57663;SDS011;43493;53.098;6.064;2023-08-31T05:44:10;10.87;;;2.10;;
57663;SDS011;43493;53.098;6.064;2023-08-31T05:46:36;9.23;;;2.00;;
57663;SDS011;43493;53.098;6.064;2023-08-31T05:49:03;6.10;;;2.03;;
57663;SDS011;43493;53.098;6.064;2023-08-31T05:51:29;7.20;;;2.27;;
57663;SDS011;43493;53.098;6.064;2023-08-31T05:53:55;9.20;;;2.30;;
57663;SDS011;43493;53.098;6.064;2023-08-31T05:56:20;6.50;;;2.00;;
57663;SDS011;43493;53.098;6.064;2023-08-31T05:58:46;6.67;;;2.00;;
57663;SDS011;43493;53.098;6.064;2023-08-31T06:01:12;6.03;;;1.87;;
57663;SDS011;43493;53.098;6.064;2023-08-31T06:03:38;6.27;;;2.10;;
57663;SDS011;43493;53.098;6.064;2023-08-31T06:06:04;5.33;;;2.00;;
57663;SDS011;43493;53.098;6.064;2023-08-31T06:08:29;8.83;;;2.10;;
57663;SDS011;43493;53.098;6.064;2023-08-31T06:10:55;7.03;;;2.43;;
57663;SDS011;43493;53.098;6.064;2023-08-31T06:13:21;7.00;;;1.90;;
57663;SDS011;43493;53.098;6.064;2023-08-31T06:15:47;7.83;;;2.00;;
57663;SDS011;43493;53.098;6.064;2023-08-31T06:18:12;4.77;;;1.80;;
57663;SDS011;43493;53.098;6.064;2023-08-31T06:20:38;7.90;;;1.80;;
57663;SDS011;43493;53.098;6.064;2023-08-31T06:23:04;7.40;;;1.60;;
57663;SDS011;43493;53.098;6.064;2023-08-31T06:25:30;3.80;;;1.63;;
57663;SDS011;43493;53.098;6.064;2023-08-31T06:27:56;9.80;;;1.60;;
57663;SDS011;43493;53.098;6.064;2023-08-31T06:30:22;6.67;;;1.40;;
57663;SDS011;43493;53.098;6.064;2023-08-31T06:32:48;4.53;;;1.67;;
57663;SDS011;43493;53.098;6.064;2023-08-31T06:35:15;3.20;;;1.37;;
57663;SDS011;43493;53.098;6.064;2023-08-31T06:37:41;4.60;;;1.50;;
57663;SDS011;43493;53.098;6.064;2023-08-31T06:40:07;5.80;;;1.60;;
57663;SDS011;43493;53.098;6.064;2023-08-31T06:42:37;7.20;;;1.60;;
57663;SDS011;43493;53.098;6.064;2023-08-31T06:45:04;4.50;;;1.37;;
57663;SDS011;43493;53.098;6.064;2023-08-31T06:47:31;7.10;;;1.57;;
57663;SDS011;43493;53.098;6.064;2023-08-31T06:49:56;4.17;;;1.20;;
57663;SDS011;43493;53.098;6.064;2023-08-31T06:52:23;5.63;;;1.27;;
57663;SDS011;43493;53.098;6.064;2023-08-31T06:54:49;4.53;;;1.20;;
57663;SDS011;43493;53.098;6.064;2023-08-31T06:57:15;2.83;;;1.07;;
57663;SDS011;43493;53.098;6.064;2023-08-31T06:59:41;4.03;;;1.37;;
57663;SDS011;43493;53.098;6.064;2023-08-31T07:02:06;4.40;;;1.30;;
57663;SDS011;43493;53.098;6.064;2023-08-31T07:04:32;3.07;;;1.10;;
57663;SDS011;43493;53.098;6.064;2023-08-31T07:06:58;4.30;;;1.10;;
57663;SDS011;43493;53.098;6.064;2023-08-31T07:09:24;3.07;;;1.30;;
57663;SDS011;43493;53.098;6.064;2023-08-31T07:11:52;7.70;;;1.20;;
57663;SDS011;43493;53.098;6.064;2023-08-31T07:14:17;4.00;;;1.20;;
57663;SDS011;43493;53.098;6.064;2023-08-31T07:16:43;3.63;;;1.17;;
57663;SDS011;43493;53.098;6.064;2023-08-31T07:19:09;3.70;;;1.57;;
57663;SDS011;43493;53.098;6.064;2023-08-31T07:21:34;3.67;;;1.10;;
57663;SDS011;43493;53.098;6.064;2023-08-31T07:24:00;4.50;;;1.45;;
57663;SDS011;43493;53.098;6.064;2023-08-31T07:26:26;3.17;;;1.20;;
57663;SDS011;43493;53.098;6.064;2023-08-31T07:28:52;2.47;;;1.20;;
57663;SDS011;43493;53.098;6.064;2023-08-31T07:31:17;4.75;;;1.52;;
57663;SDS011;43493;53.098;6.064;2023-08-31T07:33:43;3.10;;;1.60;;
57663;SDS011;43493;53.098;6.064;2023-08-31T07:36:09;4.43;;;1.60;;
57663;SDS011;43493;53.098;6.064;2023-08-31T07:38:34;4.03;;;1.33;;
57663;SDS011;43493;53.098;6.064;2023-08-31T07:41:00;3.83;;;1.67;;
57663;SDS011;43493;53.098;6.064;2023-08-31T07:43:26;3.38;;;1.40;;
57663;SDS011;43493;53.098;6.064;2023-08-31T07:45:52;3.53;;;1.38;;
57663;SDS011;43493;53.098;6.064;2023-08-31T07:48:18;3.10;;;1.30;;
57663;SDS011;43493;53.098;6.064;2023-08-31T07:50:44;3.33;;;1.40;;
57663;SDS011;43493;53.098;6.064;2023-08-31T07:53:11;4.55;;;1.42;;
57663;SDS011;43493;53.098;6.064;2023-08-31T07:55:36;3.30;;;0.90;;
57663;SDS011;43493;53.098;6.064;2023-08-31T07:58:02;4.53;;;1.25;;
57663;SDS011;43493;53.098;6.064;2023-08-31T08:00:28;2.17;;;0.88;;
57663;SDS011;43493;53.098;6.064;2023-08-31T08:02:54;2.00;;;1.08;;
57663;SDS011;43493;53.098;6.064;2023-08-31T08:05:19;3.90;;;1.50;;
57663;SDS011;43493;53.098;6.064;2023-08-31T08:07:45;3.45;;;1.05;;
57663;SDS011;43493;53.098;6.064;2023-08-31T08:10:11;6.13;;;1.25;;
57663;SDS011;43493;53.098;6.064;2023-08-31T08:12:37;2.78;;;1.10;;
57663;SDS011;43493;53.098;6.064;2023-08-31T08:15:10;3.95;;;1.98;;
57663;SDS011;43493;53.098;6.064;2023-08-31T08:17:36;3.43;;;0.93;;
57663;SDS011;43493;53.098;6.064;2023-08-31T08:20:02;2.60;;;1.00;;
57663;SDS011;43493;53.098;6.064;2023-08-31T08:22:28;3.93;;;1.30;;
57663;SDS011;43493;53.098;6.064;2023-08-31T08:24:54;4.07;;;1.10;;
57663;SDS011;43493;53.098;6.064;2023-08-31T08:27:20;4.93;;;1.30;;
57663;SDS011;43493;53.098;6.064;2023-08-31T08:29:46;7.50;;;2.20;;
57663;SDS011;43493;53.098;6.064;2023-08-31T08:32:12;7.00;;;1.60;;
57663;SDS011;43493;53.098;6.064;2023-08-31T08:34:38;5.03;;;1.90;;
57663;SDS011;43493;53.098;6.064;2023-08-31T08:37:04;4.20;;;1.10;;
57663;SDS011;43493;53.098;6.064;2023-08-31T08:39:30;4.63;;;1.10;;
57663;SDS011;43493;53.098;6.064;2023-08-31T08:41:57;4.07;;;1.30;;
57663;SDS011;43493;53.098;6.064;2023-08-31T08:44:28;6.07;;;1.60;;
57663;SDS011;43493;53.098;6.064;2023-08-31T08:46:58;5.10;;;1.20;;
57663;SDS011;43493;53.098;6.064;2023-08-31T08:49:26;2.97;;;1.00;;
57663;SDS011;43493;53.098;6.064;2023-08-31T08:51:51;4.67;;;1.27;;
57663;SDS011;43493;53.098;6.064;2023-08-31T08:54:18;6.70;;;1.30;;
57663;SDS011;43493;53.098;6.064;2023-08-31T08:56:45;3.87;;;1.20;;
57663;SDS011;43493;53.098;6.064;2023-08-31T08:59:10;7.43;;;1.10;;
57663;SDS011;43493;53.098;6.064;2023-08-31T09:01:38;3.83;;;1.00;;
57663;SDS011;43493;53.098;6.064;2023-08-31T09:04:04;3.27;;;1.23;;
57663;SDS011;43493;53.098;6.064;2023-08-31T09:06:31;3.53;;;1.00;;
57663;SDS011;43493;53.098;6.064;2023-08-31T09:08:57;6.27;;;1.50;;
57663;SDS011;43493;53.098;6.064;2023-08-31T09:11:23;3.87;;;1.33;;
57663;SDS011;43493;53.098;6.064;2023-08-31T09:13:50;3.83;;;0.93;;
57663;SDS011;43493;53.098;6.064;2023-08-31T09:16:27;3.47;;;1.10;;
57663;SDS011;43493;53.098;6.064;2023-08-31T09:18:55;4.67;;;1.27;;
57663;SDS011;43493;53.098;6.064;2023-08-31T09:21:21;3.57;;;0.90;;
57663;SDS011;43493;53.098;6.064;2023-08-31T09:23:58;3.43;;;1.00;;
57663;SDS011;43493;53.098;6.064;2023-08-31T09:28:50;5.03;;;1.20;;
57663;SDS011;43493;53.098;6.064;2023-08-31T09:31:15;2.57;;;1.00;;
57663;SDS011;43493;53.098;6.064;2023-08-31T09:33:51;3.07;;;1.20;;
57663;SDS011;43493;53.098;6.064;2023-08-31T09:36:17;2.50;;;1.00;;
57663;SDS011;43493;53.098;6.064;2023-08-31T09:38:45;2.57;;;0.90;;
57663;SDS011;43493;53.098;6.064;2023-08-31T09:41:11;2.43;;;0.87;;
57663;SDS011;43493;53.098;6.064;2023-08-31T09:43:37;3.90;;;1.07;;
57663;SDS011;43493;53.098;6.064;2023-08-31T09:46:03;4.27;;;1.30;;
57663;SDS011;43493;53.098;6.064;2023-08-31T09:48:30;3.63;;;1.07;;
57663;SDS011;43493;53.098;6.064;2023-08-31T09:50:56;3.03;;;1.10;;
57663;SDS011;43493;53.098;6.064;2023-08-31T09:53:25;2.93;;;1.17;;
57663;SDS011;43493;53.098;6.064;2023-08-31T09:55:54;4.30;;;1.40;;
57663;SDS011;43493;53.098;6.064;2023-08-31T09:58:21;3.03;;;1.07;;
57663;SDS011;43493;53.098;6.064;2023-08-31T10:00:51;4.70;;;1.40;;
57663;SDS011;43493;53.098;6.064;2023-08-31T10:03:17;3.07;;;1.30;;
57663;SDS011;43493;53.098;6.064;2023-08-31T10:05:46;2.97;;;1.23;;
57663;SDS011;43493;53.098;6.064;2023-08-31T10:08:14;2.17;;;1.17;;
57663;SDS011;43493;53.098;6.064;2023-08-31T10:10:40;4.43;;;1.20;;
57663;SDS011;43493;53.098;6.064;2023-08-31T10:13:07;4.60;;;1.40;;
57663;SDS011;43493;53.098;6.064;2023-08-31T10:15:34;5.20;;;1.30;;
57663;SDS011;43493;53.098;6.064;2023-08-31T10:18:02;3.77;;;1.33;;
57663;SDS011;43493;53.098;6.064;2023-08-31T10:20:31;3.47;;;1.13;;
57663;SDS011;43493;53.098;6.064;2023-08-31T10:22:59;3.87;;;1.00;;
57663;SDS011;43493;53.098;6.064;2023-08-31T10:26:10;3.33;;;1.57;;
57663;SDS011;43493;53.098;6.064;2023-08-31T10:28:19;3.07;;;1.10;;
57663;SDS011;43493;53.098;6.064;2023-08-31T10:33:33;3.93;;;1.20;;
57663;SDS011;43493;53.098;6.064;2023-08-31T10:36:00;2.43;;;1.20;;
57663;SDS011;43493;53.098;6.064;2023-08-31T10:38:30;4.97;;;1.30;;
57663;SDS011;43493;53.098;6.064;2023-08-31T10:41:39;3.80;;;1.30;;
57663;SDS011;43493;53.098;6.064;2023-08-31T10:46:17;6.47;;;1.73;;
57663;SDS011;43493;53.098;6.064;2023-08-31T10:48:53;4.00;;;1.27;;
57663;SDS011;43493;53.098;6.064;2023-08-31T10:51:27;2.70;;;1.40;;
57663;SDS011;43493;53.098;6.064;2023-08-31T10:56:30;11.13;;;1.50;;
57663;SDS011;43493;53.098;6.064;2023-08-31T10:58:57;5.00;;;1.20;;
57663;SDS011;43493;53.098;6.064;2023-08-31T11:04:19;4.27;;;1.23;;
57663;SDS011;43493;53.098;6.064;2023-08-31T11:06:46;5.17;;;2.00;;
57663;SDS011;43493;53.098;6.064;2023-08-31T11:09:18;3.10;;;1.20;;
57663;SDS011;43493;53.098;6.064;2023-08-31T11:11:45;5.03;;;1.50;;
57663;SDS011;43493;53.098;6.064;2023-08-31T11:14:12;4.27;;;1.73;;
57663;SDS011;43493;53.098;6.064;2023-08-31T11:16:38;4.27;;;1.20;;
57663;SDS011;43493;53.098;6.064;2023-08-31T11:19:04;2.63;;;0.80;;
57663;SDS011;43493;53.098;6.064;2023-08-31T11:21:30;2.60;;;1.10;;
57663;SDS011;43493;53.098;6.064;2023-08-31T11:23:56;3.67;;;1.10;;
57663;SDS011;43493;53.098;6.064;2023-08-31T11:26:26;2.57;;;1.10;;
57663;SDS011;43493;53.098;6.064;2023-08-31T11:28:52;3.63;;;1.30;;
57663;SDS011;43493;53.098;6.064;2023-08-31T11:31:24;3.83;;;1.20;;
57663;SDS011;43493;53.098;6.064;2023-08-31T11:33:51;5.10;;;1.30;;
57663;SDS011;43493;53.098;6.064;2023-08-31T11:36:22;3.20;;;1.13;;
57663;SDS011;43493;53.098;6.064;2023-08-31T11:38:50;4.93;;;1.23;;
57663;SDS011;43493;53.098;6.064;2023-08-31T11:41:16;4.13;;;1.30;;
57663;SDS011;43493;53.098;6.064;2023-08-31T11:43:42;6.87;;;1.60;;
57663;SDS011;43493;53.098;6.064;2023-08-31T11:46:08;6.23;;;1.47;;
57663;SDS011;43493;53.098;6.064;2023-08-31T11:48:34;2.97;;;1.13;;
57663;SDS011;43493;53.098;6.064;2023-08-31T11:51:00;3.57;;;1.40;;
57663;SDS011;43493;53.098;6.064;2023-08-31T11:53:27;4.23;;;1.20;;
57663;SDS011;43493;53.098;6.064;2023-08-31T11:55:54;4.17;;;1.50;;
57663;SDS011;43493;53.098;6.064;2023-08-31T11:58:20;3.13;;;1.33;;
57663;SDS011;43493;53.098;6.064;2023-08-31T12:00:54;2.83;;;1.17;;
57663;SDS011;43493;53.098;6.064;2023-08-31T12:03:21;5.67;;;1.73;;
57663;SDS011;43493;53.098;6.064;2023-08-31T12:05:48;4.63;;;1.60;;
57663;SDS011;43493;53.098;6.064;2023-08-31T12:08:16;3.73;;;1.20;;
57663;SDS011;43493;53.098;6.064;2023-08-31T12:10:50;4.07;;;1.20;;
57663;SDS011;43493;53.098;6.064;2023-08-31T12:13:15;5.03;;;1.37;;
57663;SDS011;43493;53.098;6.064;2023-08-31T12:15:41;4.67;;;1.33;;
57663;SDS011;43493;53.098;6.064;2023-08-31T12:18:16;3.60;;;1.33;;
57663;SDS011;43493;53.098;6.064;2023-08-31T12:20:45;5.95;;;1.88;;
57663;SDS011;43493;53.098;6.064;2023-08-31T12:23:12;3.73;;;1.30;;
57663;SDS011;43493;53.098;6.064;2023-08-31T12:25:45;4.00;;;1.40;;
57663;SDS011;43493;53.098;6.064;2023-08-31T12:28:14;4.72;;;1.38;;
57663;SDS011;43493;53.098;6.064;2023-08-31T12:30:42;7.33;;;2.27;;
57663;SDS011;43493;53.098;6.064;2023-08-31T12:33:11;8.80;;;2.20;;
57663;SDS011;43493;53.098;6.064;2023-08-31T12:35:36;4.57;;;1.40;;
57663;SDS011;43493;53.098;6.064;2023-08-31T12:38:03;5.53;;;1.70;;
57663;SDS011;43493;53.098;6.064;2023-08-31T12:40:29;5.00;;;1.80;;
57663;SDS011;43493;53.098;6.064;2023-08-31T12:42:55;4.40;;;1.30;;
57663;SDS011;43493;53.098;6.064;2023-08-31T12:45:20;4.17;;;1.30;;
57663;SDS011;43493;53.098;6.064;2023-08-31T12:47:46;4.93;;;1.37;;
57663;SDS011;43493;53.098;6.064;2023-08-31T12:50:12;3.43;;;1.30;;
57663;SDS011;43493;53.098;6.064;2023-08-31T12:52:38;3.57;;;1.43;;
57663;SDS011;43493;53.098;6.064;2023-08-31T12:55:11;5.27;;;1.60;;
57663;SDS011;43493;53.098;6.064;2023-08-31T12:57:40;4.17;;;1.87;;
57663;SDS011;43493;53.098;6.064;2023-08-31T13:00:07;4.97;;;1.70;;
57663;SDS011;43493;53.098;6.064;2023-08-31T13:02:40;6.40;;;1.60;;
57663;SDS011;43493;53.098;6.064;2023-08-31T13:05:07;4.30;;;1.80;;
57663;SDS011;43493;53.098;6.064;2023-08-31T13:07:38;6.20;;;1.60;;
57663;SDS011;43493;53.098;6.064;2023-08-31T13:10:04;6.67;;;1.73;;
57663;SDS011;43493;53.098;6.064;2023-08-31T13:12:33;5.00;;;1.60;;
57663;SDS011;43493;53.098;6.064;2023-08-31T13:14:59;4.73;;;1.70;;
57663;SDS011;43493;53.098;6.064;2023-08-31T13:17:25;5.13;;;1.53;;
57663;SDS011;43493;53.098;6.064;2023-08-31T13:19:58;6.33;;;1.60;;
57663;SDS011;43493;53.098;6.064;2023-08-31T13:22:24;6.70;;;2.47;;
57663;SDS011;43493;53.098;6.064;2023-08-31T13:24:50;5.63;;;1.80;;
57663;SDS011;43493;53.098;6.064;2023-08-31T13:27:16;9.00;;;2.40;;
57663;SDS011;43493;53.098;6.064;2023-08-31T13:29:42;9.83;;;1.90;;
57663;SDS011;43493;53.098;6.064;2023-08-31T13:32:08;5.37;;;1.63;;
57663;SDS011;43493;53.098;6.064;2023-08-31T13:34:34;6.07;;;1.57;;
57663;SDS011;43493;53.098;6.064;2023-08-31T13:37:02;6.97;;;1.60;;
57663;SDS011;43493;53.098;6.064;2023-08-31T13:39:28;6.77;;;1.83;;
57663;SDS011;43493;53.098;6.064;2023-08-31T13:41:55;5.50;;;2.47;;
57663;SDS011;43493;53.098;6.064;2023-08-31T13:44:20;7.33;;;2.20;;
57663;SDS011;43493;53.098;6.064;2023-08-31T13:46:47;6.23;;;1.70;;
57663;SDS011;43493;53.098;6.064;2023-08-31T13:49:13;6.33;;;1.60;;
57663;SDS011;43493;53.098;6.064;2023-08-31T13:51:40;4.50;;;1.77;;
57663;SDS011;43493;53.098;6.064;2023-08-31T13:54:06;5.60;;;1.67;;
57663;SDS011;43493;53.098;6.064;2023-08-31T13:56:32;5.33;;;1.80;;
57663;SDS011;43493;53.098;6.064;2023-08-31T13:58:58;8.10;;;2.00;;
57663;SDS011;43493;53.098;6.064;2023-08-31T14:01:24;7.17;;;2.00;;
57663;SDS011;43493;53.098;6.064;2023-08-31T14:03:50;5.57;;;1.67;;
57663;SDS011;43493;53.098;6.064;2023-08-31T14:06:16;5.60;;;2.23;;
57663;SDS011;43493;53.098;6.064;2023-08-31T14:08:42;6.50;;;1.70;;
57663;SDS011;43493;53.098;6.064;2023-08-31T14:11:07;5.27;;;1.60;;
57663;SDS011;43493;53.098;6.064;2023-08-31T14:13:33;4.33;;;1.60;;
57663;SDS011;43493;53.098;6.064;2023-08-31T14:15:59;7.93;;;1.93;;
57663;SDS011;43493;53.098;6.064;2023-08-31T14:18:28;5.83;;;1.73;;
57663;SDS011;43493;53.098;6.064;2023-08-31T14:20:55;7.87;;;1.90;;
57663;SDS011;43493;53.098;6.064;2023-08-31T14:23:23;8.43;;;2.17;;
57663;SDS011;43493;53.098;6.064;2023-08-31T14:25:48;8.07;;;1.80;;
57663;SDS011;43493;53.098;6.064;2023-08-31T14:28:14;8.10;;;1.73;;
57663;SDS011;43493;53.098;6.064;2023-08-31T14:30:40;5.53;;;1.53;;
57663;SDS011;43493;53.098;6.064;2023-08-31T14:33:05;6.97;;;1.73;;
57663;SDS011;43493;53.098;6.064;2023-08-31T14:35:31;8.07;;;1.60;;
57663;SDS011;43493;53.098;6.064;2023-08-31T14:37:57;5.80;;;1.67;;
57663;SDS011;43493;53.098;6.064;2023-08-31T14:40:24;5.10;;;1.40;;
57663;SDS011;43493;53.098;6.064;2023-08-31T14:42:50;7.00;;;1.80;;
57663;SDS011;43493;53.098;6.064;2023-08-31T14:45:16;8.00;;;1.63;;
57663;SDS011;43493;53.098;6.064;2023-08-31T14:47:41;7.03;;;1.87;;
57663;SDS011;43493;53.098;6.064;2023-08-31T14:50:07;8.93;;;2.00;;
57663;SDS011;43493;53.098;6.064;2023-08-31T14:52:33;6.00;;;1.50;;
57663;SDS011;43493;53.098;6.064;2023-08-31T14:54:59;6.60;;;1.57;;
57663;SDS011;43493;53.098;6.064;2023-08-31T14:57:25;5.73;;;1.40;;
57663;SDS011;43493;53.098;6.064;2023-08-31T14:59:51;8.17;;;2.00;;
57663;SDS011;43493;53.098;6.064;2023-08-31T15:02:19;7.33;;;1.70;;
57663;SDS011;43493;53.098;6.064;2023-08-31T15:04:48;7.43;;;1.63;;
57663;SDS011;43493;53.098;6.064;2023-08-31T15:07:17;6.67;;;2.20;;
57663;SDS011;43493;53.098;6.064;2023-08-31T15:09:45;7.23;;;1.40;;
57663;SDS011;43493;53.098;6.064;2023-08-31T15:12:11;5.97;;;1.90;;